Time;durP1;ratioP1;P1;durP2;ratioP2;P2;SDS_P1;SDS_P2;PMS_P1;PMS_P2;Temp;Humidity;BMP_temperature;BMP_pressure;BME280_temperature;BME280_humidity;BME280_pressure;Samples;Min_cycle;Max_cycle;Signal;HPM_P1;HPM_P2
2023/12/13 00:00:52;;;;;;;67.57;62.58;;;11.20;99.90;;;;;;5020349;28;20029;-74
2023/12/13 00:03:18;;;;;;;70.95;65.47;;;11.20;99.90;;;;;;5034552;28;20389;-74
2023/12/13 00:05:44;;;;;;;67.88;62.22;;;11.20;99.90;;;;;;5030203;28;20026;-74
2023/12/13 00:08:10;;;;;;;74.63;69.18;;;11.20;99.90;;;;;;5031170;28;20618;-74
2023/12/13 00:10:36;;;;;;;87.15;81.22;;;11.10;99.90;;;;;;5031057;28;20044;-74
2023/12/13 00:13:03;;;;;;;135.85;127.47;;;11.20;99.90;;;;;;5034775;28;20033;-74
2023/12/13 00:15:29;;;;;;;149.85;140.90;;;11.20;99.90;;;;;;5033240;28;20050;-75
2023/12/13 00:17:56;;;;;;;153.23;143.82;;;11.20;99.90;;;;;;5034169;28;20037;-74
2023/12/13 00:20:22;;;;;;;127.25;119.30;;;11.20;99.90;;;;;;5034319;28;20049;-74
2023/12/13 00:22:48;;;;;;;112.65;105.40;;;11.30;99.90;;;;;;5034126;28;20044;-74
2023/12/13 00:25:14;;;;;;;114.78;107.65;;;11.30;99.90;;;;;;5033779;28;20025;-74
2023/12/13 00:27:40;;;;;;;121.13;114.07;;;11.20;99.90;;;;;;5033881;28;20036;-75
2023/12/13 00:30:07;;;;;;;104.57;97.30;;;11.20;99.90;;;;;;5030475;28;20042;-75
2023/12/13 00:32:33;;;;;;;137.05;128.68;;;11.30;99.90;;;;;;5033577;28;20402;-74
2023/12/13 00:34:59;;;;;;;111.45;104.38;;;11.30;99.90;;;;;;5034224;28;20048;-74
2023/12/13 00:37:25;;;;;;;136.05;127.85;;;11.30;99.90;;;;;;5033710;28;20398;-75
2023/12/13 00:39:51;;;;;;;117.80;110.65;;;11.30;99.90;;;;;;5019995;28;20041;-74
2023/12/13 00:42:17;;;;;;;116.05;108.50;;;11.30;99.90;;;;;;5029916;28;20041;-74
2023/12/13 00:44:43;;;;;;;118.72;110.93;;;11.30;99.90;;;;;;5034114;28;20074;-74
2023/12/13 00:47:09;;;;;;;114.93;107.93;;;11.30;99.90;;;;;;5032614;28;20042;-74
2023/12/13 00:49:35;;;;;;;120.65;113.03;;;11.30;99.90;;;;;;5033558;28;20037;-74
2023/12/13 00:52:02;;;;;;;119.10;111.70;;;11.30;99.90;;;;;;5033505;28;20049;-74
2023/12/13 00:54:29;;;;;;;104.50;97.38;;;11.20;99.90;;;;;;5033937;28;20040;-74
2023/12/13 00:56:55;;;;;;;91.70;85.57;;;11.20;99.90;;;;;;5033294;28;20053;-74
2023/12/13 00:59:21;;;;;;;82.28;76.68;;;11.20;99.90;;;;;;5032752;28;20056;-74
2023/12/13 01:01:47;;;;;;;74.40;68.72;;;11.20;99.90;;;;;;5024141;28;20054;-74
2023/12/13 01:04:13;;;;;;;76.43;71.05;;;11.20;99.90;;;;;;5026881;28;20026;-74
2023/12/13 01:06:39;;;;;;;82.57;76.88;;;11.10;99.90;;;;;;5021532;28;20045;-74
2023/12/13 01:09:05;;;;;;;91.70;85.22;;;11.00;99.90;;;;;;5023367;28;20037;-74
2023/12/13 01:11:31;;;;;;;86.97;80.93;;;11.00;99.90;;;;;;5030062;28;20053;-73
2023/12/13 01:13:57;;;;;;;88.97;82.40;;;11.00;99.90;;;;;;5033533;28;20029;-74
2023/12/13 01:16:23;;;;;;;91.03;84.88;;;10.90;99.90;;;;;;5023185;28;20038;-73
2023/12/13 01:18:50;;;;;;;80.13;74.40;;;10.90;99.90;;;;;;5013587;28;20042;-74
2023/12/13 01:21:16;;;;;;;80.07;73.97;;;10.90;99.90;;;;;;5022365;28;20033;-74
2023/12/13 01:23:42;;;;;;;93.53;87.38;;;10.90;99.90;;;;;;5033405;28;20048;-74
2023/12/13 01:26:08;;;;;;;90.43;84.25;;;11.00;99.90;;;;;;5026535;28;20036;-74
2023/12/13 01:28:35;;;;;;;79.50;74.13;;;10.90;99.90;;;;;;5013647;28;20030;-74
2023/12/13 01:31:08;;;;;;;84.70;79.07;;;10.90;99.90;;;;;;5019348;28;20052;-74
2023/12/13 01:33:34;;;;;;;76.10;70.93;;;10.90;99.90;;;;;;5033096;28;20045;-74
2023/12/13 01:36:03;;;;;;;80.70;75.30;;;11.00;99.90;;;;;;5025846;28;20458;-74
2023/12/13 01:38:29;;;;;;;96.20;89.60;;;11.00;99.90;;;;;;5016706;28;20038;-74
2023/12/13 01:40:55;;;;;;;83.78;77.63;;;11.00;99.90;;;;;;5032701;28;20033;-74
2023/12/13 01:43:25;;;;;;;77.45;72.18;;;11.00;99.90;;;;;;5032856;28;20386;-74
2023/12/13 01:45:52;;;;;;;80.35;74.63;;;11.00;99.90;;;;;;5026647;28;20041;-75
2023/12/13 01:48:18;;;;;;;74.57;69.20;;;11.00;99.90;;;;;;5012293;28;20030;-75
2023/12/13 01:50:44;;;;;;;68.50;63.05;;;11.00;99.90;;;;;;5018070;28;20026;-74
2023/12/13 01:53:11;;;;;;;80.40;74.68;;;11.00;99.90;;;;;;5032768;28;20048;-74
2023/12/13 01:55:37;;;;;;;85.85;80.20;;;11.00;99.90;;;;;;5030646;28;20415;-73
2023/12/13 01:58:04;;;;;;;73.97;68.57;;;11.00;99.90;;;;;;5031618;28;20029;-74
2023/12/13 02:00:30;;;;;;;69.00;63.97;;;10.90;99.90;;;;;;5031615;28;20048;-74
2023/12/13 02:02:56;;;;;;;62.88;58.05;;;10.80;99.90;;;;;;5030833;28;20037;-74
2023/12/13 02:05:23;;;;;;;70.68;65.25;;;10.90;99.90;;;;;;5029857;28;20049;-74
2023/12/13 02:07:49;;;;;;;68.78;64.03;;;10.90;99.90;;;;;;5014751;28;20042;-73
2023/12/13 02:10:15;;;;;;;91.97;85.90;;;10.90;99.90;;;;;;4996505;28;20044;-74
2023/12/13 02:12:42;;;;;;;71.03;66.13;;;10.90;99.90;;;;;;5029533;28;20053;-74
2023/12/13 02:15:08;;;;;;;85.05;79.50;;;10.80;99.90;;;;;;5030384;28;20030;-73
2023/12/13 02:17:34;;;;;;;71.05;66.05;;;10.80;99.90;;;;;;5010178;28;20045;-74
2023/12/13 02:20:01;;;;;;;81.30;75.38;;;10.80;99.90;;;;;;5014037;28;20056;-74
2023/12/13 02:22:27;;;;;;;68.28;63.53;;;10.80;99.90;;;;;;5031015;28;20057;-74
2023/12/13 02:24:53;;;;;;;61.90;57.47;;;10.80;99.90;;;;;;5032332;28;20047;-74
2023/12/13 02:27:21;;;;;;;66.65;62.20;;;10.80;99.90;;;;;;5009205;28;20041;-73
2023/12/13 02:29:48;;;;;;;67.95;63.00;;;10.80;99.90;;;;;;5010946;28;20494;-74
2023/12/13 02:32:14;;;;;;;74.18;68.88;;;10.80;99.90;;;;;;5027300;28;20045;-74
2023/12/13 02:34:41;;;;;;;87.03;81.50;;;10.80;99.90;;;;;;5026589;28;20029;-73
2023/12/13 02:37:07;;;;;;;80.68;75.40;;;10.80;99.90;;;;;;5030821;28;20033;-74
2023/12/13 02:39:33;;;;;;;77.18;72.00;;;10.80;99.90;;;;;;5019048;28;20037;-74
2023/12/13 02:41:59;;;;;;;72.93;67.72;;;10.80;99.90;;;;;;5027028;28;20037;-74
2023/12/13 02:44:25;;;;;;;72.30;66.97;;;10.80;99.90;;;;;;5030791;28;20033;-73
2023/12/13 02:46:57;;;;;;;79.05;74.05;;;10.80;99.90;;;;;;5030494;28;20041;-74
2023/12/13 02:49:24;;;;;;;81.22;75.60;;;10.80;99.90;;;;;;5032166;28;20367;-74
2023/12/13 02:51:50;;;;;;;95.70;89.95;;;10.80;99.90;;;;;;5031363;28;20049;-74
2023/12/13 02:54:16;;;;;;;82.90;77.18;;;10.80;99.90;;;;;;5014685;28;20029;-74
2023/12/13 02:56:42;;;;;;;92.25;86.22;;;10.80;99.90;;;;;;5024645;28;20364;-74
2023/12/13 02:59:08;;;;;;;81.25;75.82;;;10.80;99.90;;;;;;5032210;28;20021;-74
2023/12/13 03:01:35;;;;;;;90.03;84.43;;;10.90;99.90;;;;;;5030614;28;20050;-74
2023/12/13 03:04:02;;;;;;;90.25;84.43;;;10.90;99.90;;;;;;5031070;28;20036;-74
2023/12/13 03:06:28;;;;;;;81.10;75.68;;;10.90;99.90;;;;;;5031494;28;20045;-74
2023/12/13 03:08:54;;;;;;;79.25;73.93;;;10.90;99.90;;;;;;5031374;28;20044;-74
2023/12/13 03:11:20;;;;;;;76.05;70.85;;;10.90;99.90;;;;;;5027444;28;20030;-74
2023/12/13 03:13:46;;;;;;;80.10;74.82;;;10.80;99.90;;;;;;5030540;28;20053;-75
2023/12/13 03:16:12;;;;;;;80.68;75.72;;;10.80;99.90;;;;;;5031147;28;20471;-74
2023/12/13 03:18:38;;;;;;;73.97;69.20;;;10.90;99.90;;;;;;5031934;28;20030;-74
2023/12/13 03:21:05;;;;;;;87.68;82.03;;;10.90;99.90;;;;;;5030338;28;20390;-75
2023/12/13 03:23:31;;;;;;;92.53;86.22;;;10.90;99.90;;;;;;5031117;28;20026;-74
2023/12/13 03:25:57;;;;;;;83.10;77.70;;;10.90;99.90;;;;;;5031363;28;20060;-74
2023/12/13 03:28:23;;;;;;;75.05;70.05;;;10.90;99.90;;;;;;5030775;28;20041;-74
2023/12/13 03:30:49;;;;;;;88.70;83.00;;;10.90;99.90;;;;;;5030689;28;20060;-74
2023/12/13 03:33:15;;;;;;;86.75;80.75;;;10.90;99.90;;;;;;5031446;28;20056;-74
2023/12/13 03:35:41;;;;;;;72.65;67.75;;;10.90;99.90;;;;;;5030835;28;20052;-74
2023/12/13 03:38:07;;;;;;;110.43;104.07;;;10.90;99.90;;;;;;5031152;28;20040;-74
2023/12/13 03:40:33;;;;;;;86.95;81.60;;;10.90;99.90;;;;;;5030985;28;20025;-74
2023/12/13 03:43:00;;;;;;;85.35;79.95;;;10.90;99.90;;;;;;5031377;28;20037;-75
2023/12/13 03:45:26;;;;;;;89.15;83.05;;;10.90;99.90;;;;;;5016100;28;20042;-74
2023/12/13 03:47:52;;;;;;;82.63;77.78;;;10.90;99.90;;;;;;5019228;28;20048;-74
2023/12/13 03:50:20;;;;;;;79.72;74.65;;;10.90;99.90;;;;;;5012951;28;20038;-74
2023/12/13 03:52:46;;;;;;;81.53;76.35;;;10.90;99.90;;;;;;5031664;28;20038;-74
2023/12/13 03:55:12;;;;;;;81.43;76.47;;;10.80;99.90;;;;;;5030730;28;20037;-75
2023/12/13 03:57:39;;;;;;;74.57;69.82;;;10.80;99.90;;;;;;5030099;28;20554;-74
2023/12/13 04:00:06;;;;;;;70.88;66.57;;;10.80;99.90;;;;;;5033514;28;20470;-74
2023/12/13 04:02:32;;;;;;;71.53;67.15;;;10.80;99.90;;;;;;5034838;28;20025;-74
2023/12/13 04:04:58;;;;;;;59.58;55.97;;;10.80;99.90;;;;;;5022586;28;20046;-74
2023/12/13 04:07:25;;;;;;;52.25;48.75;;;10.90;99.90;;;;;;5031732;28;20052;-74
2023/12/13 04:09:51;;;;;;;74.25;69.65;;;10.80;99.90;;;;;;5033643;28;20036;-74
2023/12/13 04:12:17;;;;;;;65.47;61.38;;;10.80;99.90;;;;;;5033025;28;20053;-74
2023/12/13 04:14:43;;;;;;;70.40;65.97;;;10.80;99.90;;;;;;5034060;28;20033;-74
2023/12/13 04:17:09;;;;;;;86.80;81.50;;;10.80;99.90;;;;;;5033971;28;20486;-74
2023/12/13 04:19:35;;;;;;;80.13;75.43;;;10.70;99.90;;;;;;5034679;28;20034;-74
2023/12/13 04:22:01;;;;;;;76.35;71.80;;;10.70;99.90;;;;;;5032985;28;20383;-74
2023/12/13 04:24:28;;;;;;;75.63;71.30;;;10.70;99.90;;;;;;5033805;28;20406;-74
2023/12/13 04:26:54;;;;;;;90.68;85.47;;;10.80;99.90;;;;;;5034244;28;20041;-74
2023/12/13 04:29:20;;;;;;;72.57;68.50;;;10.80;99.90;;;;;;5034719;28;20045;-74
2023/12/13 04:31:47;;;;;;;58.28;54.97;;;10.80;99.90;;;;;;5033809;28;20053;-74
2023/12/13 04:34:13;;;;;;;63.15;59.70;;;10.80;99.90;;;;;;5034369;28;20045;-74
2023/12/13 04:36:39;;;;;;;70.95;67.00;;;10.80;99.90;;;;;;5033683;28;20481;-74
2023/12/13 04:39:05;;;;;;;62.78;59.22;;;10.80;99.90;;;;;;5005233;28;20048;-75
2023/12/13 04:41:32;;;;;;;79.82;75.47;;;10.80;99.90;;;;;;5020492;28;20050;-73
2023/12/13 04:43:58;;;;;;;82.70;78.10;;;10.80;99.90;;;;;;5024299;28;20064;-73
2023/12/13 04:46:24;;;;;;;68.30;64.22;;;10.80;99.90;;;;;;5027163;28;20084;-75
2023/12/13 04:48:50;;;;;;;72.18;68.22;;;10.70;99.90;;;;;;5034211;28;20049;-72
2023/12/13 04:51:16;;;;;;;63.38;59.90;;;10.70;99.90;;;;;;5029454;28;20033;-73
2023/12/13 04:53:42;;;;;;;68.18;64.25;;;10.70;99.90;;;;;;5024785;28;20052;-73
2023/12/13 04:56:08;;;;;;;61.63;58.05;;;10.70;99.90;;;;;;5033388;28;20029;-72
2023/12/13 04:58:35;;;;;;;65.90;62.13;;;10.70;99.90;;;;;;5018034;28;20042;-73
2023/12/13 05:01:01;;;;;;;55.80;52.28;;;10.70;99.90;;;;;;5027445;28;20074;-72
2023/12/13 05:03:28;;;;;;;53.88;50.92;;;10.80;99.90;;;;;;5033288;28;20044;-73
2023/12/13 05:05:54;;;;;;;53.35;49.88;;;10.70;99.90;;;;;;5028426;28;20046;-72
2023/12/13 05:08:20;;;;;;;52.35;49.17;;;10.80;99.90;;;;;;5013542;28;20459;-73
2023/12/13 05:10:46;;;;;;;48.22;45.55;;;10.70;99.90;;;;;;5018050;28;20029;-73
2023/12/13 05:13:12;;;;;;;50.60;47.65;;;10.70;99.90;;;;;;5033584;28;20037;-73
2023/12/13 05:15:38;;;;;;;56.08;52.65;;;10.60;99.90;;;;;;5032659;28;20038;-72
2023/12/13 05:18:04;;;;;;;60.70;57.22;;;10.60;99.90;;;;;;5032316;28;20037;-73
2023/12/13 05:20:31;;;;;;;49.13;46.55;;;10.60;99.90;;;;;;5033389;28;20033;-72
2023/12/13 05:22:57;;;;;;;60.70;56.90;;;10.70;99.90;;;;;;5031048;28;20053;-73
2023/12/13 05:25:23;;;;;;;66.25;62.15;;;10.60;99.90;;;;;;5022578;28;20033;-73
2023/12/13 05:27:49;;;;;;;62.70;58.67;;;10.60;99.90;;;;;;5033249;28;20508;-72
2023/12/13 05:30:17;;;;;;;64.85;60.60;;;10.60;99.90;;;;;;5032726;28;20033;-73
2023/12/13 05:32:44;;;;;;;60.13;56.17;;;10.60;99.90;;;;;;5033163;28;20045;-73
2023/12/13 05:35:10;;;;;;;67.15;62.53;;;10.60;99.90;;;;;;5031483;28;20382;-72
2023/12/13 05:37:36;;;;;;;42.63;39.38;;;10.50;99.90;;;;;;5026493;28;20033;-72
2023/12/13 05:40:03;;;;;;;63.58;59.45;;;10.50;99.90;;;;;;5020812;28;20040;-73
2023/12/13 05:42:29;;;;;;;69.80;65.65;;;10.50;99.90;;;;;;5032569;28;20396;-72
2023/12/13 05:44:56;;;;;;;67.50;63.28;;;10.50;99.90;;;;;;5032823;28;20025;-73
2023/12/13 05:47:22;;;;;;;83.10;77.90;;;10.50;99.90;;;;;;5031857;28;20037;-72
2023/12/13 05:49:48;;;;;;;113.65;74.90;;;10.40;99.90;;;;;;5022798;28;20026;-72
2023/12/13 05:52:14;;;;;;;74.22;69.63;;;10.40;99.90;;;;;;5019498;28;20046;-67
2023/12/13 05:54:40;;;;;;;70.88;66.43;;;10.40;99.90;;;;;;5032552;28;20029;-67
2023/12/13 05:57:06;;;;;;;70.22;65.50;;;10.40;99.90;;;;;;5032648;28;20029;-67
2023/12/13 05:59:32;;;;;;;65.05;60.67;;;10.40;99.90;;;;;;5032863;28;20029;-67
2023/12/13 06:01:58;;;;;;;64.57;60.55;;;10.40;99.90;;;;;;5032190;28;20038;-67
2023/12/13 06:04:25;;;;;;;59.22;55.25;;;10.40;99.90;;;;;;5031990;28;20048;-67
2023/12/13 06:06:51;;;;;;;60.95;52.50;;;10.40;99.90;;;;;;5030727;28;20045;-67
2023/12/13 06:09:18;;;;;;;61.67;57.47;;;10.30;99.90;;;;;;5032771;28;20025;-67
2023/12/13 06:11:44;;;;;;;57.10;53.42;;;10.30;99.90;;;;;;5032341;28;20121;-67
2023/12/13 06:14:10;;;;;;;53.95;50.22;;;10.40;99.90;;;;;;5032428;28;20033;-67
2023/12/13 06:16:36;;;;;;;53.85;50.08;;;10.40;99.90;;;;;;5031870;28;20407;-66
2023/12/13 06:19:02;;;;;;;52.42;49.00;;;10.40;99.90;;;;;;5027137;28;20033;-67
2023/12/13 06:21:28;;;;;;;59.85;55.88;;;10.40;99.90;;;;;;5022123;28;20037;-66
2023/12/13 06:23:55;;;;;;;59.25;55.28;;;10.40;99.90;;;;;;5032472;28;20037;-66
2023/12/13 06:26:21;;;;;;;57.28;52.90;;;10.40;99.90;;;;;;5032089;28;20029;-66
2023/12/13 06:28:47;;;;;;;64.97;60.15;;;10.40;99.90;;;;;;5032553;28;20025;-66
2023/12/13 06:31:13;;;;;;;54.75;51.15;;;10.40;99.90;;;;;;5031681;28;20390;-66
2023/12/13 06:33:39;;;;;;;52.08;48.67;;;10.40;99.90;;;;;;5032214;28;20049;-66
2023/12/13 06:36:06;;;;;;;53.58;49.40;;;10.40;99.90;;;;;;5031260;28;20042;-66
2023/12/13 06:38:33;;;;;;;52.72;48.13;;;10.30;99.90;;;;;;5030674;28;20036;-66
2023/12/13 06:40:59;;;;;;;47.05;43.42;;;10.30;99.90;;;;;;5031192;28;20029;-66
2023/12/13 06:43:25;;;;;;;50.88;47.08;;;10.30;99.90;;;;;;5032053;28;20032;-66
2023/12/13 06:45:51;;;;;;;68.68;64.28;;;10.30;99.90;;;;;;5030860;28;20394;-66
2023/12/13 06:48:17;;;;;;;89.10;82.95;;;10.20;99.90;;;;;;5031265;28;20030;-68
2023/12/13 06:50:43;;;;;;;97.47;91.63;;;10.20;99.90;;;;;;5029440;28;20022;-66
2023/12/13 06:53:09;;;;;;;93.93;87.55;;;10.30;99.90;;;;;;5012281;28;20048;-66
2023/12/13 06:55:35;;;;;;;100.30;66.65;;;10.30;99.90;;;;;;5015797;28;20028;-66
2023/12/13 06:58:01;;;;;;;59.72;55.72;;;10.30;99.90;;;;;;5032068;28;20030;-66
2023/12/13 07:00:28;;;;;;;57.67;53.67;;;10.30;99.90;;;;;;5031040;28;20036;-66
2023/12/13 07:02:54;;;;;;;64.32;59.47;;;10.30;99.90;;;;;;5031578;28;20032;-66
2023/12/13 07:05:20;;;;;;;89.25;82.95;;;10.30;99.90;;;;;;5031121;28;20045;-66
2023/12/13 07:07:47;;;;;;;93.70;87.88;;;10.30;99.90;;;;;;5024520;28;20109;-66
2023/12/13 07:10:15;;;;;;;77.93;73.10;;;10.30;99.90;;;;;;5012409;28;20046;-66
2023/12/13 07:12:41;;;;;;;96.03;86.85;;;10.20;99.90;;;;;;5031778;28;20032;-66
2023/12/13 07:15:10;;;;;;;99.95;93.28;;;10.20;99.90;;;;;;5010448;28;20056;-66
2023/12/13 07:17:37;;;;;;;66.63;62.13;;;10.20;99.90;;;;;;5023205;28;20034;-72
2023/12/13 07:20:05;;;;;;;79.32;73.95;;;10.10;99.90;;;;;;5031806;28;20481;-72
2023/12/13 07:22:31;;;;;;;105.13;98.57;;;10.00;99.90;;;;;;5031945;28;20040;-72
2023/12/13 07:24:57;;;;;;;98.32;92.40;;;10.00;99.90;;;;;;5028503;28;20499;-72
2023/12/13 07:27:23;;;;;;;78.40;72.43;;;10.00;99.90;;;;;;5025532;28;20041;-72
2023/12/13 07:29:49;;;;;;;84.10;77.85;;;10.00;99.90;;;;;;5031743;28;20458;-72
2023/12/13 07:32:15;;;;;;;89.00;83.28;;;10.00;99.90;;;;;;5030664;28;20030;-72
2023/12/13 07:34:44;;;;;;;82.22;76.13;;;10.00;99.90;;;;;;5035476;28;20041;-72
2023/12/13 07:37:10;;;;;;;56.88;51.67;;;10.00;99.90;;;;;;5034658;28;20029;-72
2023/12/13 07:39:36;;;;;;;58.15;53.72;;;10.00;99.90;;;;;;5033988;28;20037;-72
2023/12/13 07:42:03;;;;;;;55.53;51.45;;;9.90;99.90;;;;;;5033199;28;20025;-72
2023/12/13 07:44:32;;;;;;;67.18;61.88;;;9.90;99.90;;;;;;5033047;28;20045;-72
2023/12/13 07:47:02;;;;;;;57.50;52.67;;;9.90;99.90;;;;;;5032350;28;20489;-72
2023/12/13 07:49:28;;;;;;;58.45;54.53;;;9.90;99.90;;;;;;5031569;28;20406;-72
2023/12/13 07:51:55;;;;;;;474.13;90.60;;;9.80;99.90;;;;;;5032863;28;20032;-72
2023/12/13 07:54:22;;;;;;;76.18;71.07;;;9.80;99.90;;;;;;5034456;28;20375;-72
2023/12/13 07:56:50;;;;;;;71.70;66.43;;;9.90;99.90;;;;;;5034670;28;20037;-71
2023/12/13 07:59:16;;;;;;;81.25;75.68;;;9.90;99.90;;;;;;5034640;28;20030;-72
2023/12/13 08:01:42;;;;;;;73.55;68.75;;;10.00;99.90;;;;;;5033613;28;20038;-72
2023/12/13 08:04:09;;;;;;;69.25;64.63;;;10.00;99.90;;;;;;5030067;28;20032;-72
2023/12/13 08:06:35;;;;;;;65.15;60.83;;;10.00;99.90;;;;;;5034605;28;20022;-72
2023/12/13 08:09:02;;;;;;;79.85;73.55;;;10.00;99.90;;;;;;5034718;28;20539;-72
2023/12/13 08:11:28;;;;;;;86.45;80.55;;;10.00;99.90;;;;;;5030379;28;20037;-72
2023/12/13 08:13:54;;;;;;;75.32;70.13;;;10.00;99.90;;;;;;5033209;28;20041;-72
2023/12/13 08:16:20;;;;;;;81.30;76.20;;;10.10;99.90;;;;;;5032101;28;20037;-74
2023/12/13 08:18:46;;;;;;;80.75;75.10;;;10.10;99.90;;;;;;5029665;28;20045;-73
2023/12/13 08:21:12;;;;;;;71.60;66.30;;;10.20;99.90;;;;;;5026704;28;20044;-68
2023/12/13 08:23:39;;;;;;;67.18;62.88;;;10.20;99.90;;;;;;5034428;28;20026;-68
2023/12/13 08:26:05;;;;;;;81.20;76.15;;;10.20;99.90;;;;;;5033667;28;20045;-68
2023/12/13 08:28:31;;;;;;;79.03;73.30;;;10.20;99.90;;;;;;5034579;28;20025;-67
2023/12/13 08:30:58;;;;;;;73.63;68.32;;;10.10;99.90;;;;;;5032449;28;20029;-68
2023/12/13 08:33:24;;;;;;;71.88;66.50;;;10.10;99.90;;;;;;5015974;28;20172;-68
2023/12/13 08:35:50;;;;;;;69.75;64.93;;;10.10;99.90;;;;;;5015195;28;20029;-68
2023/12/13 08:38:16;;;;;;;66.05;60.92;;;10.10;99.90;;;;;;5028415;28;20040;-67
2023/12/13 08:40:42;;;;;;;57.75;52.78;;;10.10;99.90;;;;;;5033023;28;20459;-68
2023/12/13 08:43:08;;;;;;;56.90;51.95;;;10.10;99.90;;;;;;5032998;28;20030;-69
2023/12/13 08:45:34;;;;;;;62.03;57.72;;;10.10;99.90;;;;;;5029277;28;20040;-67
2023/12/13 08:48:01;;;;;;;59.40;54.80;;;10.10;99.90;;;;;;5033791;28;20033;-68
2023/12/13 08:50:27;;;;;;;58.10;53.70;;;10.20;99.90;;;;;;5032865;28;20033;-66
2023/12/13 08:52:54;;;;;;;47.63;43.13;;;10.20;99.90;;;;;;5033564;28;20068;-67
2023/12/13 08:55:20;;;;;;;53.65;49.80;;;10.20;99.90;;;;;;5033072;28;20042;-66
2023/12/13 08:57:46;;;;;;;51.60;47.65;;;10.20;99.90;;;;;;5027200;28;20382;-65
2023/12/13 09:00:13;;;;;;;56.78;52.72;;;10.30;99.90;;;;;;5031401;28;20029;-66
2023/12/13 09:02:39;;;;;;;63.90;56.33;;;10.40;99.90;;;;;;5031726;28;20655;-66
2023/12/13 09:05:06;;;;;;;54.15;50.35;;;10.40;99.90;;;;;;5032374;28;20032;-66
2023/12/13 09:07:32;;;;;;;71.80;67.28;;;10.40;99.90;;;;;;5032970;28;20072;-66
2023/12/13 09:09:58;;;;;;;63.58;59.53;;;10.40;99.90;;;;;;5027724;28;20037;-66
2023/12/13 09:12:24;;;;;;;73.28;68.75;;;10.50;99.90;;;;;;5032820;28;20045;-66
2023/12/13 09:14:50;;;;;;;67.63;63.20;;;10.50;99.90;;;;;;5039989;28;20478;-66
2023/12/13 09:17:16;;;;;;;61.17;56.78;;;10.50;99.90;;;;;;5031964;28;20037;-66
2023/12/13 09:19:42;;;;;;;87.43;81.70;;;10.50;99.90;;;;;;5018010;28;20048;-66
2023/12/13 09:22:13;;;;;;;109.78;103.00;;;10.60;99.90;;;;;;5031876;28;20052;-66
2023/12/13 09:24:39;;;;;;;76.70;72.10;;;10.60;99.90;;;;;;5030745;28;20060;-66
2023/12/13 09:27:05;;;;;;;81.93;76.70;;;10.70;99.90;;;;;;5028459;28;20064;-66
2023/12/13 09:29:31;;;;;;;91.90;86.03;;;10.70;99.90;;;;;;5019292;28;20045;-66
2023/12/13 09:31:58;;;;;;;101.10;95.22;;;10.70;99.90;;;;;;5032334;28;20367;-66
2023/12/13 09:34:24;;;;;;;95.50;89.78;;;10.80;99.90;;;;;;5030182;28;20068;-67
2023/12/13 09:36:50;;;;;;;98.00;92.03;;;10.80;99.90;;;;;;5029333;28;20029;-66
2023/12/13 09:39:16;;;;;;;55.72;51.85;;;10.80;99.90;;;;;;5029951;28;20029;-66
2023/12/13 09:42:00;;;;;;;55.55;51.90;;;10.80;99.90;;;;;;5026381;28;20034;-66
2023/12/13 09:44:26;;;;;;;79.03;73.88;;;10.80;99.90;;;;;;5014957;28;20056;-72
2023/12/13 09:46:53;;;;;;;79.25;74.63;;;10.70;99.90;;;;;;5025500;28;20038;-72
2023/12/13 09:49:20;;;;;;;99.60;93.85;;;10.70;99.90;;;;;;5024182;28;20041;-71
2023/12/13 09:51:47;;;;;;;95.80;90.30;;;10.70;99.90;;;;;;5029392;28;20398;-72
2023/12/13 09:54:13;;;;;;;80.85;75.93;;;10.70;99.90;;;;;;5019999;28;20053;-72
2023/12/13 09:56:39;;;;;;;124.40;117.25;;;10.70;99.90;;;;;;5021788;28;20034;-71
2023/12/13 09:59:05;;;;;;;142.77;134.68;;;10.70;99.90;;;;;;5023471;28;20048;-71
2023/12/13 10:01:31;;;;;;;102.57;97.05;;;10.80;99.90;;;;;;5022796;28;20049;-71
2023/12/13 10:03:57;;;;;;;77.80;73.20;;;10.70;99.90;;;;;;5013225;28;20368;-72
2023/12/13 10:06:24;;;;;;;87.18;82.28;;;10.60;99.90;;;;;;5025592;28;20030;-71
2023/12/13 10:08:54;;;;;;;112.05;105.75;;;10.60;99.90;;;;;;5032728;28;20033;-71
2023/12/13 10:11:20;;;;;;;101.53;96.03;;;10.60;99.90;;;;;;5031958;28;20048;-71
2023/12/13 10:13:46;;;;;;;112.38;105.97;;;10.70;99.90;;;;;;5030699;28;20052;-71
2023/12/13 10:16:13;;;;;;;106.93;101.15;;;10.70;99.90;;;;;;5029785;28;20030;-71
2023/12/13 10:18:40;;;;;;;97.38;92.15;;;10.70;99.90;;;;;;5029433;28;20040;-71
2023/12/13 10:21:10;;;;;;;113.93;107.72;;;10.80;99.90;;;;;;5022596;28;20029;-71
2023/12/13 10:23:36;;;;;;;64.80;61.17;;;10.80;99.90;;;;;;5014272;28;20049;-72
2023/12/13 10:26:03;;;;;;;56.58;52.95;;;10.90;99.90;;;;;;5027622;28;20041;-71
2023/12/13 10:28:29;;;;;;;39.13;36.58;;;10.90;99.90;;;;;;5030471;28;20040;-71
2023/12/13 10:30:55;;;;;;;38.53;36.20;;;10.90;99.90;;;;;;5031516;28;20029;-71
2023/12/13 10:33:21;;;;;;;42.22;39.72;;;10.90;99.90;;;;;;5024362;28;20525;-71
2023/12/13 10:35:47;;;;;;;48.55;45.53;;;10.90;99.90;;;;;;5030240;28;20022;-72
2023/12/13 10:38:14;;;;;;;61.45;57.83;;;10.90;99.90;;;;;;5003220;28;20034;-71
2023/12/13 10:40:43;;;;;;;56.30;53.00;;;11.00;99.90;;;;;;5029778;28;20029;-69
2023/12/13 10:43:11;;;;;;;49.97;47.28;;;11.00;99.90;;;;;;5018339;28;20041;-72
2023/12/13 10:45:43;;;;;;;52.72;49.70;;;11.10;99.90;;;;;;5013945;28;20391;-71
2023/12/13 10:48:10;;;;;;;52.33;49.38;;;11.10;99.90;;;;;;5030945;28;20044;-71
2023/12/13 10:50:36;;;;;;;61.15;57.85;;;11.00;99.90;;;;;;5028630;28;20045;-72
2023/12/13 10:53:02;;;;;;;58.80;55.47;;;11.00;99.90;;;;;;5029937;28;20042;-71
2023/12/13 10:55:28;;;;;;;51.83;48.63;;;11.10;99.90;;;;;;5012782;28;20046;-71
2023/12/13 10:57:55;;;;;;;83.60;78.85;;;11.10;99.90;;;;;;5024527;28;20041;-72
2023/12/13 11:00:24;;;;;;;71.60;67.50;;;11.20;99.90;;;;;;5025871;28;20049;-72
2023/12/13 11:02:53;;;;;;;61.67;58.15;;;11.30;99.90;;;;;;5029623;28;20044;-72
2023/12/13 11:05:19;;;;;;;70.47;66.57;;;11.30;99.90;;;;;;5029460;28;20052;-71
2023/12/13 11:07:45;;;;;;;77.78;73.28;;;11.30;99.90;;;;;;5028815;28;20105;-72
2023/12/13 11:10:13;;;;;;;73.60;69.65;;;11.30;99.90;;;;;;5034756;28;20017;-72
2023/12/13 11:12:51;;;;;;;66.22;62.70;;;11.30;99.90;;;;;;5035953;28;20046;-71
2023/12/13 11:15:18;;;;;;;71.03;66.72;;;11.30;99.90;;;;;;5034927;28;20048;-72
2023/12/13 11:17:46;;;;;;;93.05;88.15;;;11.30;99.90;;;;;;5034417;28;20022;-71
2023/12/13 11:20:13;;;;;;;73.85;69.55;;;11.40;99.90;;;;;;5026477;28;20390;-71
2023/12/13 11:22:42;;;;;;;73.55;69.55;;;11.40;99.90;;;;;;5034122;28;20041;-71
2023/12/13 11:25:09;;;;;;;83.35;78.68;;;11.50;99.90;;;;;;5034800;28;20037;-72
2023/12/13 11:27:36;;;;;;;83.10;78.65;;;11.50;99.90;;;;;;5034110;28;20374;-71
2023/12/13 11:30:13;;;;;;;108.35;102.03;;;11.60;99.90;;;;;;5034006;28;20033;-71
2023/12/13 11:32:43;;;;;;;79.63;75.25;;;11.70;99.90;;;;;;5033859;28;20064;-71
2023/12/13 11:35:19;;;;;;;100.30;94.88;;;11.70;99.90;;;;;;5026630;28;20061;-72
2023/12/13 11:37:52;;;;;;;93.90;88.80;;;11.70;99.90;;;;;;5027052;28;20030;-71
2023/12/13 11:40:18;;;;;;;95.85;90.50;;;11.80;99.90;;;;;;5024013;28;20045;-71
2023/12/13 11:42:46;;;;;;;88.50;83.35;;;11.80;99.90;;;;;;5022922;28;20026;-72
2023/12/13 11:45:12;;;;;;;92.38;87.53;;;11.80;99.90;;;;;;5031046;28;20756;-72
2023/12/13 11:47:39;;;;;;;93.57;88.25;;;11.90;99.90;;;;;;5025937;28;20034;-71
2023/12/13 11:50:05;;;;;;;100.80;95.15;;;11.90;99.90;;;;;;5031758;28;20501;-71
2023/12/13 11:52:31;;;;;;;125.03;118.60;;;12.00;99.90;;;;;;5029421;28;20495;-72
2023/12/13 11:55:00;;;;;;;126.18;119.32;;;12.00;99.90;;;;;;5033712;28;20048;-71
2023/12/13 11:57:26;;;;;;;102.50;97.10;;;11.90;99.90;;;;;;5029650;28;20394;-72
2023/12/13 11:59:52;;;;;;;107.43;101.78;;;12.00;99.90;;;;;;5020993;28;20470;-71
2023/12/13 12:02:20;;;;;;;170.65;161.82;;;12.10;99.90;;;;;;5031152;28;20037;-72
2023/12/13 12:04:47;;;;;;;116.75;110.38;;;12.00;99.90;;;;;;5033661;28;20485;-71
2023/12/13 12:07:14;;;;;;;107.88;102.28;;;12.10;99.90;;;;;;5024191;28;20040;-72
2023/12/13 12:09:44;;;;;;;98.05;92.88;;;12.10;99.90;;;;;;5017839;28;20034;-72
2023/12/13 12:12:11;;;;;;;99.90;94.50;;;12.20;99.90;;;;;;5029772;28;20025;-71
2023/12/13 12:14:38;;;;;;;95.85;90.97;;;12.10;99.90;;;;;;5034113;28;20676;-71
2023/12/13 12:17:05;;;;;;;108.45;102.60;;;12.10;99.90;;;;;;5032161;28;20033;-71
2023/12/13 12:19:31;;;;;;;126.35;119.80;;;12.00;99.90;;;;;;5024638;28;20033;-71
2023/12/13 12:22:01;;;;;;;104.30;98.80;;;12.00;99.90;;;;;;5033409;28;20049;-71